createdAt,value
2018-02-10T00:01:59.952Z,91.80
2018-02-10T00:04:26.668Z,73.50
2018-02-10T00:06:52.656Z,72.40
2018-02-10T00:09:19.396Z,71.37
2018-02-10T00:11:46.134Z,68.43
2018-02-10T00:14:12.032Z,76.57
2018-02-10T00:16:38.000Z,75.53
2018-02-10T00:19:03.944Z,70.43
2018-02-10T00:21:29.946Z,74.20
2018-02-10T00:23:55.868Z,80.80
2018-02-10T00:26:21.856Z,86.90
2018-02-10T00:28:48.596Z,84.43
2018-02-10T00:31:14.540Z,77.60
2018-02-10T00:33:40.480Z,78.90
2018-02-10T00:36:07.196Z,76.90
2018-02-10T00:38:33.172Z,83.33
2018-02-10T00:40:59.864Z,72.90
2018-02-10T00:43:25.804Z,82.10
2018-02-10T00:45:51.850Z,92.80
2018-02-10T00:48:17.880Z,72.87
2018-02-10T00:50:43.832Z,74.50
2018-02-10T00:53:09.800Z,77.03
2018-02-10T00:55:36.520Z,73.37
2018-02-10T00:58:02.492Z,89.67
2018-02-10T01:00:29.204Z,88.80
2018-02-10T01:02:55.180Z,69.03
2018-02-10T01:05:21.860Z,83.17
2018-02-10T01:07:47.893Z,85.53
2018-02-10T01:10:13.840Z,77.80
2018-02-10T01:12:39.812Z,81.70
2018-02-10T01:15:05.828Z,77.40
2018-02-10T01:17:31.764Z,75.90
2018-02-10T01:19:57.707Z,72.30
2018-02-10T01:22:23.711Z,83.43
2018-02-10T01:24:49.679Z,71.30
2018-02-10T01:27:15.624Z,79.73
2018-02-10T01:29:41.600Z,77.47
2018-02-10T01:32:07.536Z,81.23
2018-02-10T01:34:34.259Z,80.33
2018-02-10T01:37:00.200Z,70.40
2018-02-10T01:39:26.140Z,71.40
2018-02-10T01:41:52.112Z,70.97
2018-02-10T01:44:18.118Z,76.10
2018-02-10T01:46:44.061Z,66.83
2018-02-10T01:49:10.784Z,82.60
2018-02-10T01:51:36.764Z,68.60
2018-02-10T01:54:02.732Z,67.37
2018-02-10T01:56:28.672Z,76.53
2018-02-10T01:58:54.639Z,85.73
2018-02-10T02:01:20.628Z,71.77
2018-02-10T02:03:46.603Z,76.20
2018-02-10T02:06:12.543Z,77.33
2018-02-10T02:08:38.528Z,77.50
2018-02-10T02:11:04.468Z,88.83
2018-02-10T02:13:30.408Z,83.10
2018-02-10T02:15:56.379Z,69.10
2018-02-10T02:18:22.364Z,78.10
2018-02-10T02:20:48.338Z,78.60
2018-02-10T02:23:14.324Z,81.33
2018-02-10T02:25:40.260Z,71.27
2018-02-10T02:28:06.212Z,74.60
2018-02-10T02:30:32.192Z,78.10
2018-02-10T02:32:58.167Z,83.53
2018-02-10T02:35:24.120Z,81.87
2018-02-10T02:37:50.124Z,76.07
2018-02-10T02:40:16.823Z,74.63
2018-02-10T02:42:42.760Z,74.83
2018-02-10T02:45:08.740Z,74.20
2018-02-10T02:47:35.424Z,66.27
2018-02-10T02:50:01.393Z,75.27
2018-02-10T02:52:27.396Z,82.73
2018-02-10T02:54:53.357Z,72.90
2018-02-10T02:57:19.328Z,77.03
2018-02-10T02:59:46.008Z,77.60
2018-02-10T03:02:11.949Z,82.10
2018-02-10T03:04:37.937Z,76.23
2018-02-10T03:07:03.929Z,82.63
2018-02-10T03:09:29.908Z,74.73
2018-02-10T03:11:55.868Z,75.23
2018-02-10T03:14:22.600Z,77.30
2018-02-10T03:16:48.552Z,90.70
2018-02-10T03:19:15.274Z,79.73
2018-02-10T03:21:41.264Z,82.03
2018-02-10T03:24:07.208Z,92.27
2018-02-10T03:26:33.198Z,84.47
2018-02-10T03:28:59.192Z,81.23
2018-02-10T03:31:25.154Z,77.90
2018-02-10T03:33:51.132Z,78.30
2018-02-10T03:36:17.828Z,67.13
2018-02-10T03:38:43.778Z,79.50
2018-02-10T03:41:09.753Z,84.57
2018-02-10T03:43:36.506Z,71.50
2018-02-10T03:46:03.189Z,77.93
2018-02-10T03:48:29.145Z,81.00
2018-02-10T03:50:55.124Z,79.37
2018-02-10T03:53:21.813Z,75.03
2018-02-10T03:55:47.784Z,83.20
2018-02-10T03:58:13.776Z,83.40
2018-02-10T04:00:39.752Z,67.80
2018-02-10T04:03:05.755Z,75.73
2018-02-10T04:05:31.745Z,72.37
2018-02-10T04:07:57.681Z,82.73
2018-02-10T04:10:24.380Z,72.40
2018-02-10T04:12:57.181Z,79.23
2018-02-10T04:15:23.165Z,76.87
2018-02-10T04:17:49.113Z,71.40
2018-02-10T04:20:15.828Z,74.60
2018-02-10T04:22:41.805Z,80.80
2018-02-10T04:25:08.538Z,78.57
2018-02-10T04:27:34.486Z,68.33
2018-02-10T04:30:01.201Z,87.63
2018-02-10T04:32:27.187Z,69.00
2018-02-10T04:34:53.169Z,69.97
2018-02-10T04:37:19.143Z,91.40
2018-02-10T04:39:45.831Z,81.90
2018-02-10T04:42:11.768Z,69.30
2018-02-10T04:44:37.751Z,73.87
2018-02-10T04:47:03.885Z,69.53
2018-02-10T04:49:29.928Z,85.30
2018-02-10T04:51:55.910Z,76.57
2018-02-10T04:54:21.891Z,68.20
2018-02-10T04:56:47.885Z,71.60
2018-02-10T04:59:13.865Z,75.80
2018-02-10T05:01:39.841Z,75.40
2018-02-10T05:04:05.999Z,72.33
2018-02-10T05:06:31.996Z,83.73
2018-02-10T05:08:58.715Z,73.23
2018-02-10T05:11:24.690Z,71.13
2018-02-10T05:13:51.384Z,79.00
2018-02-10T05:16:17.368Z,81.90
2018-02-10T05:18:44.058Z,82.63
2018-02-10T05:21:10.070Z,77.63
2018-02-10T05:23:36.796Z,80.00
2018-02-10T05:26:02.934Z,69.13
2018-02-10T05:28:28.945Z,69.10
2018-02-10T05:30:54.958Z,73.20
2018-02-10T05:33:20.907Z,76.13
2018-02-10T05:35:46.841Z,85.57
2018-02-10T05:38:12.785Z,66.23
2018-02-10T05:40:38.762Z,83.90
2018-02-10T05:43:04.720Z,71.97
2018-02-10T05:45:30.686Z,76.63
2018-02-10T05:47:56.676Z,77.20
2018-02-10T05:50:23.367Z,78.40
2018-02-10T05:52:49.377Z,84.43
2018-02-10T05:55:16.092Z,79.47
2018-02-10T05:57:42.069Z,80.63
2018-02-10T06:00:08.070Z,76.37
2018-02-10T06:02:34.094Z,70.37
2018-02-10T06:05:00.041Z,82.00
2018-02-10T06:07:26.781Z,75.60
2018-02-10T06:09:52.746Z,85.00
2018-02-10T06:12:19.468Z,76.97
2018-02-10T06:14:45.420Z,73.40
2018-02-10T06:17:11.393Z,80.20
2018-02-10T06:19:37.414Z,80.93
2018-02-10T06:22:04.148Z,88.63
2018-02-10T06:24:30.101Z,76.17
2018-02-10T06:26:56.841Z,79.30
2018-02-10T06:29:22.823Z,74.17
2018-02-10T06:31:48.755Z,83.67
2018-02-10T06:34:14.736Z,75.70
2018-02-10T06:36:40.708Z,79.47
2018-02-10T06:39:07.537Z,77.40
2018-02-10T06:41:33.546Z,70.10
2018-02-10T06:43:59.488Z,75.33
2018-02-10T06:46:25.492Z,72.80
2018-02-10T06:48:51.468Z,72.33
2018-02-10T06:51:18.196Z,80.90
2018-02-10T06:53:44.188Z,67.43
2018-02-10T06:56:10.885Z,69.57
2018-02-10T06:58:36.904Z,69.17
2018-02-10T07:01:02.876Z,78.50
2018-02-10T07:03:28.901Z,69.53
2018-02-10T07:05:54.857Z,68.63
2018-02-10T07:08:20.961Z,79.10
2018-02-10T07:10:46.911Z,73.80
2018-02-10T07:13:12.858Z,79.18
2018-02-10T07:15:39.061Z,76.83
2018-02-10T07:18:05.031Z,80.73
2018-02-10T07:20:30.989Z,73.43
2018-02-10T07:22:56.964Z,74.70
2018-02-10T07:25:22.941Z,73.13
2018-02-10T07:27:48.897Z,86.60
2018-02-10T07:30:14.885Z,83.87
2018-02-10T07:32:40.837Z,78.90
2018-02-10T07:35:06.904Z,89.97
2018-02-10T07:37:32.877Z,82.47
2018-02-10T07:39:58.848Z,90.00
2018-02-10T07:42:24.792Z,77.67
2018-02-10T07:44:50.783Z,87.27
2018-02-10T07:47:16.736Z,76.43
2018-02-10T07:49:42.672Z,82.33
2018-02-10T07:52:08.644Z,75.80
2018-02-10T07:54:34.609Z,72.47
2018-02-10T07:57:01.333Z,68.83
2018-02-10T07:59:28.018Z,74.33
2018-02-10T08:01:54.744Z,74.57
2018-02-10T08:04:20.715Z,79.70
2018-02-10T08:06:46.728Z,76.17
2018-02-10T08:09:13.432Z,73.63
2018-02-10T08:11:39.425Z,77.10
2018-02-10T08:14:06.896Z,69.73
2018-02-10T08:16:33.913Z,76.47
2018-02-10T08:18:59.900Z,70.47
2018-02-10T08:21:26.596Z,81.70
2018-02-10T08:23:52.545Z,77.10
2018-02-10T08:26:18.556Z,76.30
2018-02-10T08:28:44.505Z,82.93
2018-02-10T08:31:10.510Z,83.83
2018-02-10T08:33:36.501Z,73.70
2018-02-10T08:36:02.976Z,76.90
2018-02-10T08:38:28.989Z,79.10
2018-02-10T08:40:54.936Z,82.10
2018-02-10T08:43:21.654Z,78.50
2018-02-10T08:45:47.642Z,81.20
2018-02-10T08:48:13.621Z,70.73
2018-02-10T08:50:39.597Z,77.10
2018-02-10T08:53:06.344Z,70.60
2018-02-10T08:55:32.502Z,77.07
2018-02-10T08:57:59.196Z,77.20
2018-02-10T09:00:25.180Z,73.97
2018-02-10T09:02:51.957Z,71.90
2018-02-10T09:05:17.940Z,76.33
2018-02-10T09:07:43.881Z,70.73
2018-02-10T09:10:09.853Z,74.30
2018-02-10T09:12:36.574Z,79.27
2018-02-10T09:15:02.607Z,81.30
2018-02-10T09:17:28.601Z,82.20
2018-02-10T09:19:54.556Z,71.90
2018-02-10T09:22:20.617Z,77.80
2018-02-10T09:24:46.604Z,75.80
2018-02-10T09:27:12.560Z,82.67
2018-02-10T09:29:38.560Z,86.87
2018-02-10T09:32:05.302Z,71.47
2018-02-10T09:34:31.237Z,83.97
2018-02-10T09:36:57.972Z,71.30
2018-02-10T09:39:23.953Z,70.97
2018-02-10T09:41:50.021Z,71.07
2018-02-10T09:44:16.037Z,75.77
2018-02-10T09:46:41.996Z,87.70
2018-02-10T09:49:07.995Z,88.53
2018-02-10T09:51:33.985Z,72.77
2018-02-10T09:53:59.940Z,71.83
2018-02-10T09:56:26.681Z,67.97
2018-02-10T09:58:52.693Z,74.70
2018-02-10T10:01:18.689Z,81.93
2018-02-10T10:03:44.641Z,77.77
2018-02-10T10:06:10.649Z,75.33
2018-02-10T10:08:37.414Z,84.33
2018-02-10T10:11:03.377Z,72.40
2018-02-10T10:13:29.348Z,89.50
2018-02-10T10:15:55.288Z,78.00
2018-02-10T10:18:21.262Z,86.10
2018-02-10T10:20:47.241Z,72.63
2018-02-10T10:23:13.184Z,76.90
2018-02-10T10:25:39.131Z,70.73
2018-02-10T10:28:05.881Z,68.13
2018-02-10T10:30:31.853Z,77.67
2018-02-10T10:32:57.793Z,73.10
2018-02-10T10:35:23.803Z,74.17
2018-02-10T10:37:50.541Z,72.83
2018-02-10T10:40:16.525Z,74.63
2018-02-10T10:42:42.516Z,68.97
2018-02-10T10:45:08.469Z,67.57
2018-02-10T10:47:35.189Z,72.30
2018-02-10T10:50:01.137Z,79.47
2018-02-10T10:52:27.124Z,58.80
2018-02-10T10:54:53.124Z,56.53
2018-02-10T10:57:19.900Z,65.20
2018-02-10T10:59:46.577Z,58.70
2018-02-10T11:02:12.553Z,59.27
2018-02-10T11:04:38.505Z,59.30
2018-02-10T11:07:05.236Z,57.20
2018-02-10T11:09:31.180Z,55.80
2018-02-10T11:11:57.124Z,58.93
2018-02-10T11:14:23.851Z,51.40
2018-02-10T11:16:49.801Z,51.03
2018-02-10T11:19:15.976Z,54.13
2018-02-10T11:21:41.960Z,53.57
2018-02-10T11:24:07.956Z,49.90
2018-02-10T11:26:33.940Z,55.20
2018-02-10T11:29:00.648Z,56.23
2018-02-10T11:31:26.585Z,56.90
2018-02-10T11:33:52.596Z,54.37
2018-02-10T11:36:19.277Z,54.87
2018-02-10T11:38:45.229Z,54.90
2018-02-10T11:41:11.236Z,57.63
2018-02-10T11:43:37.185Z,55.53
2018-02-10T11:46:03.133Z,50.03
2018-02-10T11:48:29.093Z,53.53
2018-02-10T11:50:55.065Z,52.07
2018-02-10T11:53:21.772Z,54.63
2018-02-10T11:55:47.743Z,49.37
2018-02-10T11:58:14.432Z,45.57
2018-02-10T12:00:40.416Z,45.80
2018-02-10T12:03:06.395Z,48.23
2018-02-10T12:05:32.390Z,52.73
2018-02-10T12:07:58.440Z,43.73
2018-02-10T12:10:24.440Z,55.00
2018-02-10T12:12:50.516Z,52.60
2018-02-10T12:15:17.237Z,50.07
2018-02-10T12:17:43.220Z,51.13
2018-02-10T12:20:09.196Z,45.67
2018-02-10T12:22:35.149Z,55.40
2018-02-10T12:25:01.141Z,46.33
2018-02-10T12:27:27.080Z,40.90
2018-02-10T12:29:53.049Z,49.40
2018-02-10T12:32:19.020Z,46.37
2018-02-10T12:34:45.705Z,40.93
2018-02-10T12:37:11.668Z,38.83
2018-02-10T12:39:37.608Z,40.60
2018-02-10T12:42:03.584Z,40.20
2018-02-10T12:44:30.296Z,36.40
2018-02-10T12:46:56.284Z,38.90
2018-02-10T12:49:29.317Z,39.00
2018-02-10T12:51:55.312Z,38.73
2018-02-10T12:54:22.037Z,39.37
2018-02-10T12:56:47.973Z,36.57
2018-02-10T12:59:13.984Z,32.37
2018-02-10T13:01:39.940Z,38.37
2018-02-10T13:04:05.967Z,39.80
2018-02-10T13:06:31.908Z,34.70
2018-02-10T13:08:57.850Z,42.67
2018-02-10T13:11:25.313Z,29.07
2018-02-10T13:13:51.329Z,34.00
2018-02-10T13:16:17.281Z,36.00
2018-02-10T13:18:43.225Z,39.63
2018-02-10T13:21:09.188Z,31.00
2018-02-10T13:23:35.897Z,35.77
2018-02-10T13:26:01.861Z,35.07
2018-02-10T13:28:29.348Z,33.83
2018-02-10T13:30:56.041Z,36.20
2018-02-10T13:33:22.040Z,35.70
2018-02-10T13:35:48.772Z,35.70
2018-02-10T13:38:14.716Z,36.90
2018-02-10T13:40:41.408Z,33.10
2018-02-10T13:43:07.384Z,34.00
2018-02-10T13:45:33.316Z,34.00
2018-02-10T13:47:59.296Z,34.17
2018-02-10T13:50:25.237Z,40.37
2018-02-10T13:52:51.252Z,38.17
2018-02-10T13:55:17.928Z,38.13
2018-02-10T13:57:43.902Z,39.40
2018-02-10T14:00:10.684Z,38.33
2018-02-10T14:02:36.696Z,38.60
2018-02-10T14:05:02.628Z,42.13
2018-02-10T14:07:28.608Z,34.57
2018-02-10T14:09:55.297Z,34.73
2018-02-10T14:12:21.299Z,35.17
2018-02-10T14:14:48.012Z,39.67
2018-02-10T14:17:13.980Z,40.17
2018-02-10T14:19:40.692Z,34.90
2018-02-10T14:22:06.637Z,35.80
2018-02-10T14:24:32.636Z,34.30
2018-02-10T14:26:58.592Z,39.47
2018-02-10T14:29:24.585Z,41.23
2018-02-10T14:31:51.304Z,42.17
2018-02-10T14:34:18.004Z,43.47
2018-02-10T14:36:43.950Z,40.53
2018-02-10T14:39:09.929Z,35.70
2018-02-10T14:41:35.872Z,35.80
2018-02-10T14:44:01.845Z,35.47
2018-02-10T14:46:27.965Z,34.30
2018-02-10T14:48:54.656Z,33.63
2018-02-10T14:51:20.668Z,29.97
2018-02-10T14:53:46.650Z,33.27
2018-02-10T14:56:12.597Z,34.00
2018-02-10T14:58:38.577Z,40.90
2018-02-10T15:01:04.513Z,33.83
2018-02-10T15:03:30.525Z,42.33
2018-02-10T15:05:56.495Z,31.90
2018-02-10T15:08:22.514Z,36.60
2018-02-10T15:10:48.452Z,35.87
2018-02-10T15:13:15.352Z,35.70
2018-02-10T15:15:41.269Z,38.30
2018-02-10T15:18:07.952Z,37.57
2018-02-10T15:20:33.937Z,41.00
2018-02-10T15:22:59.884Z,41.07
2018-02-10T15:25:25.852Z,39.03
2018-02-10T15:27:52.130Z,38.60
2018-02-10T15:30:31.233Z,39.97
2018-02-10T15:35:55.869Z,35.90
2018-02-10T15:38:21.885Z,38.47
2018-02-10T15:40:47.829Z,39.60
2018-02-10T15:43:13.821Z,29.50
2018-02-10T15:45:40.511Z,37.80
2018-02-10T15:48:06.457Z,40.70
2018-02-10T15:50:32.440Z,37.23
2018-02-10T15:52:58.380Z,36.90
2018-02-10T15:55:24.404Z,43.10
2018-02-10T15:57:51.196Z,50.43
2018-02-10T16:00:17.135Z,55.00
2018-02-10T16:02:43.101Z,58.07
2018-02-10T16:05:09.102Z,56.47
2018-02-10T16:07:35.080Z,44.27
2018-02-10T16:10:01.057Z,51.13
2018-02-10T16:12:27.763Z,47.07
2018-02-10T16:14:53.780Z,45.40
2018-02-10T16:17:19.740Z,56.20
2018-02-10T16:19:45.722Z,55.77
2018-02-10T16:22:13.725Z,52.60
2018-02-10T16:24:39.752Z,49.33
2018-02-10T16:27:05.731Z,52.53
2018-02-10T16:29:31.699Z,55.90
2018-02-10T16:31:57.645Z,51.90
2018-02-10T16:34:24.408Z,48.80
2018-02-10T16:36:50.424Z,53.77
2018-02-10T16:39:16.360Z,54.00
2018-02-10T16:41:42.379Z,62.87
2018-02-10T16:44:08.356Z,58.30
2018-02-10T16:46:34.384Z,52.83
2018-02-10T16:49:01.100Z,41.63
2018-02-10T16:51:27.092Z,55.73
2018-02-10T16:53:53.085Z,54.80
2018-02-10T16:56:19.780Z,45.93
2018-02-10T16:58:45.772Z,52.40
2018-02-10T17:01:12.516Z,54.13
2018-02-10T17:03:38.505Z,50.73
2018-02-10T17:06:04.445Z,55.43
2018-02-10T17:08:30.534Z,53.00
2018-02-10T17:10:56.708Z,54.53
2018-02-10T17:13:23.675Z,54.77
2018-02-10T17:15:49.625Z,56.87
2018-02-10T17:18:15.612Z,46.90
2018-02-10T17:20:41.569Z,182.53
2018-02-10T17:23:08.292Z,96.70
2018-02-10T17:25:34.457Z,60.13
2018-02-10T17:28:01.168Z,54.47
2018-02-10T17:30:27.137Z,49.67
2018-02-10T17:32:53.872Z,55.37
2018-02-10T17:35:19.851Z,46.67
2018-02-10T17:37:46.565Z,48.23
2018-02-10T17:40:12.510Z,55.93
2018-02-10T17:42:38.481Z,46.13
2018-02-10T17:45:04.417Z,53.23
2018-02-10T17:47:30.392Z,49.03
2018-02-10T17:49:56.363Z,60.00
2018-02-10T17:52:23.098Z,61.87
2018-02-10T17:54:49.085Z,53.97
2018-02-10T17:57:15.033Z,61.37
2018-02-10T17:59:41.024Z,57.03
2018-02-10T18:02:07.705Z,65.97
2018-02-10T18:04:33.684Z,63.33
2018-02-10T18:06:59.649Z,52.73
2018-02-10T18:09:26.369Z,54.97
2018-02-10T18:11:52.393Z,52.63
2018-02-10T18:14:18.333Z,49.03
2018-02-10T18:16:44.305Z,51.97
2018-02-10T18:19:10.300Z,54.13
2018-02-10T18:21:36.284Z,51.17
2018-02-10T18:24:02.973Z,56.27
2018-02-10T18:26:28.916Z,56.67
2018-02-10T18:28:55.102Z,64.27
2018-02-10T18:31:21.097Z,57.30
2018-02-10T18:33:47.091Z,58.37
2018-02-10T18:36:13.085Z,62.57
2018-02-10T18:38:39.033Z,58.40
2018-02-10T18:41:05.012Z,54.60
2018-02-10T18:43:30.962Z,73.93
2018-02-10T18:45:56.941Z,61.97
2018-02-10T18:48:22.915Z,60.43
2018-02-10T18:50:48.894Z,59.73
2018-02-10T18:53:14.872Z,62.97
2018-02-10T18:55:41.584Z,53.57
2018-02-10T18:58:07.516Z,58.47
2018-02-10T19:00:33.484Z,52.23
2018-02-10T19:02:59.457Z,55.90
2018-02-10T19:05:25.450Z,63.53
2018-02-10T19:07:51.488Z,57.70
2018-02-10T19:10:17.469Z,60.70
2018-02-10T19:12:43.444Z,59.13
2018-02-10T19:15:09.429Z,59.97
2018-02-10T19:17:36.117Z,62.60
2018-02-10T19:20:02.093Z,65.97
2018-02-10T19:22:28.787Z,60.80
2018-02-10T19:24:54.855Z,61.13
2018-02-10T19:27:20.891Z,56.70
2018-02-10T19:29:46.829Z,70.97
2018-02-10T19:32:12.801Z,54.33
2018-02-10T19:34:38.768Z,63.07
2018-02-10T19:37:04.753Z,62.80
2018-02-10T19:39:30.725Z,62.43
2018-02-10T19:41:57.453Z,62.57
2018-02-10T19:44:23.433Z,61.63
2018-02-10T19:46:49.412Z,67.60
2018-02-10T19:49:15.365Z,57.37
2018-02-10T19:51:41.380Z,56.00
2018-02-10T19:54:07.328Z,64.10
2018-02-10T19:56:33.308Z,60.70
2018-02-10T19:58:59.264Z,57.77
2018-02-10T20:01:25.260Z,60.43
2018-02-10T20:03:52.033Z,55.97
2018-02-10T20:06:17.981Z,66.57
2018-02-10T20:08:43.930Z,58.00
2018-02-10T20:11:09.910Z,64.63
2018-02-10T20:13:36.641Z,65.77
2018-02-10T20:16:02.588Z,56.80
2018-02-10T20:18:30.026Z,61.93
2018-02-10T20:20:56.013Z,69.63
2018-02-10T20:23:22.733Z,62.10
2018-02-10T20:25:48.721Z,64.07
2018-02-10T20:28:14.692Z,62.60
2018-02-10T20:30:40.668Z,56.17
2018-02-10T20:33:06.657Z,75.17
2018-02-10T20:35:32.609Z,71.03
2018-02-10T20:37:58.551Z,67.87
2018-02-10T20:40:24.545Z,63.17
2018-02-10T20:42:50.505Z,70.40
2018-02-10T20:45:16.489Z,58.33
2018-02-10T20:47:43.173Z,66.43
2018-02-10T20:50:09.128Z,65.70
2018-02-10T20:52:35.123Z,60.37
2018-02-10T20:55:01.812Z,62.50
2018-02-10T20:57:27.759Z,65.33
2018-02-10T20:59:53.752Z,63.23
2018-02-10T21:02:19.692Z,56.00
2018-02-10T21:04:45.731Z,71.40
2018-02-10T21:07:11.665Z,66.30
2018-02-10T21:09:37.605Z,62.53
2018-02-10T21:12:03.573Z,57.67
2018-02-10T21:14:29.541Z,53.13
2018-02-10T21:16:56.233Z,56.00
2018-02-10T21:19:22.298Z,51.60
2018-02-10T21:21:48.254Z,61.73
2018-02-10T21:24:15.006Z,52.90
2018-02-10T21:26:40.948Z,51.60
2018-02-10T21:29:06.916Z,55.97
2018-02-10T21:31:32.854Z,60.13
2018-02-10T21:33:58.833Z,58.27
2018-02-10T21:36:24.793Z,53.53
2018-02-10T21:38:50.846Z,46.37
2018-02-10T21:41:17.527Z,53.57
2018-02-10T21:43:43.473Z,44.67
2018-02-10T21:46:09.448Z,44.67
2018-02-10T21:48:35.389Z,47.53
2018-02-10T21:51:01.328Z,48.43
2018-02-10T21:53:27.326Z,54.13
2018-02-10T21:55:53.325Z,39.17
2018-02-10T21:58:19.264Z,48.23
2018-02-10T22:00:45.217Z,50.07
2018-02-10T22:03:11.176Z,46.07
2018-02-10T22:05:37.180Z,46.77
2018-02-10T22:08:03.117Z,41.27
2018-02-10T22:10:29.053Z,49.93
2018-02-10T22:12:55.033Z,42.80
2018-02-10T22:15:21.031Z,48.33
2018-02-10T22:17:46.971Z,44.33
2018-02-10T22:20:13.052Z,44.27
2018-02-10T22:22:39.757Z,47.03
2018-02-10T22:25:05.741Z,43.10
2018-02-10T22:27:31.685Z,44.83
2018-02-10T22:29:57.624Z,48.30
2018-02-10T22:32:24.364Z,48.53
2018-02-10T22:34:50.398Z,43.77
2018-02-10T22:37:16.380Z,45.90
2018-02-10T22:39:42.341Z,48.07
2018-02-10T22:42:08.309Z,45.97
2018-02-10T22:44:34.985Z,47.43
2018-02-10T22:47:01.692Z,56.20
2018-02-10T22:49:27.632Z,47.67
2018-02-10T22:51:53.630Z,53.93
2018-02-10T22:54:19.569Z,47.17
2018-02-10T22:56:45.540Z,56.73
2018-02-10T22:59:11.525Z,46.13
2018-02-10T23:01:37.436Z,52.90
2018-02-10T23:04:03.397Z,43.70
2018-02-10T23:06:29.364Z,44.40
2018-02-10T23:08:55.367Z,46.77
2018-02-10T23:11:21.348Z,51.73
2018-02-10T23:13:48.065Z,43.00
2018-02-10T23:16:14.057Z,50.60
2018-02-10T23:18:40.065Z,50.33
2018-02-10T23:21:06.005Z,54.33
2018-02-10T23:23:31.990Z,50.87
2018-02-10T23:25:58.680Z,54.03
2018-02-10T23:28:24.709Z,57.07
2018-02-10T23:30:50.660Z,44.60
2018-02-10T23:33:16.604Z,55.30
2018-02-10T23:35:42.573Z,52.53
2018-02-10T23:38:09.312Z,54.07
2018-02-10T23:40:35.291Z,48.60
2018-02-10T23:43:01.266Z,55.40
2018-02-10T23:45:27.208Z,52.37
2018-02-10T23:47:53.205Z,49.63
2018-02-10T23:50:19.189Z,47.17
2018-02-10T23:52:45.157Z,48.20
2018-02-10T23:55:11.096Z,49.00
2018-02-10T23:57:37.079Z,48.33
